createdAt,value
2022-11-08T00:00:00.488Z,100401.00
2022-11-08T00:02:27.683Z,100396.75
2022-11-08T00:04:54.800Z,100402.03
2022-11-08T00:07:40.656Z,100399.25
2022-11-08T00:10:26.998Z,100398.56
2022-11-08T00:13:12.517Z,100395.22
2022-11-08T00:15:39.498Z,100388.88
2022-11-08T00:18:07.554Z,100401.25
2022-11-08T00:20:34.889Z,100398.63
2022-11-08T00:23:02.003Z,100399.25
2022-11-08T00:25:28.993Z,100392.53
2022-11-08T00:27:55.932Z,100402.28
2022-11-08T00:30:22.870Z,100397.25
2022-11-08T00:32:49.812Z,100407.63
2022-11-08T00:35:16.922Z,100407.72
2022-11-08T00:37:43.832Z,100396.22
2022-11-08T00:40:12.109Z,100398.84
2022-11-08T00:42:39.130Z,100409.19
2022-11-08T00:45:06.818Z,100405.13
2022-11-08T00:47:33.825Z,100402.91
2022-11-08T00:50:00.769Z,100391.28
2022-11-08T00:52:27.753Z,100399.28
2022-11-08T00:54:54.658Z,100394.81
2022-11-08T00:57:27.532Z,100405.13
2022-11-08T01:00:09.859Z,100391.88
2022-11-08T01:02:36.883Z,100402.25
2022-11-08T01:05:04.046Z,100395.19
2022-11-08T01:07:30.997Z,100395.19
2022-11-08T01:09:57.951Z,100396.47
2022-11-08T01:12:24.942Z,100397.81
2022-11-08T01:14:51.895Z,100390.94
2022-11-08T01:17:18.842Z,100397.50
2022-11-08T01:19:45.819Z,100393.06
2022-11-08T01:22:12.799Z,100397.31
2022-11-08T01:24:39.816Z,100391.53
2022-11-08T01:27:06.792Z,100390.03
2022-11-08T01:29:33.863Z,100396.28
2022-11-08T01:32:00.817Z,100384.38
2022-11-08T01:34:27.747Z,100382.38
2022-11-08T01:36:54.705Z,100382.19
2022-11-08T01:39:21.618Z,100386.22
2022-11-08T01:41:48.660Z,100387.41
2022-11-08T01:44:17.637Z,100383.84
2022-11-08T01:46:47.908Z,100380.28
2022-11-08T01:49:43.547Z,100389.22
2022-11-08T01:52:19.022Z,100382.50
2022-11-08T01:55:21.424Z,100385.16
2022-11-08T01:57:50.393Z,100383.66
2022-11-08T02:00:17.964Z,100386.88
2022-11-08T02:02:51.685Z,100381.97
2022-11-08T02:05:26.140Z,100386.59
2022-11-08T02:07:59.174Z,100387.75
2022-11-08T02:10:37.365Z,100387.97
2022-11-08T02:13:19.473Z,100369.94
2022-11-08T02:15:46.850Z,100368.75
2022-11-08T02:18:16.681Z,100378.91
2022-11-08T02:21:42.879Z,100383.06
2022-11-08T02:24:13.101Z,100370.13
2022-11-08T02:26:40.774Z,100379.53
2022-11-08T02:29:43.059Z,100378.59
2022-11-08T02:32:11.326Z,100385.81
2022-11-08T02:34:47.666Z,100384.75
2022-11-08T02:37:18.536Z,100381.22
2022-11-08T02:39:46.419Z,100384.88
2022-11-08T02:42:15.983Z,100374.44
2022-11-08T02:44:42.941Z,100387.25
2022-11-08T02:47:09.886Z,100374.97
2022-11-08T02:49:37.754Z,100382.78
2022-11-08T02:52:05.397Z,100377.84
2022-11-08T02:54:32.511Z,100383.31
2022-11-08T02:56:59.460Z,100381.81
2022-11-08T02:59:26.433Z,100390.59
2022-11-08T03:01:53.469Z,100383.66
2022-11-08T03:04:20.515Z,100388.88
2022-11-08T03:06:47.424Z,100380.72
2022-11-08T03:09:14.394Z,100388.94
2022-11-08T03:11:41.405Z,100385.50
2022-11-08T03:14:08.415Z,100389.94
2022-11-08T03:16:35.331Z,100385.22
2022-11-08T03:19:02.283Z,100386.91
2022-11-08T03:21:29.217Z,100395.81
2022-11-08T03:23:56.391Z,100392.81
2022-11-08T03:26:23.341Z,100389.88
2022-11-08T03:28:50.221Z,100390.72
2022-11-08T03:31:17.216Z,100390.56
2022-11-08T03:33:44.161Z,100393.78
2022-11-08T03:36:11.154Z,100395.63
2022-11-08T03:38:38.050Z,100395.22
2022-11-08T03:41:05.123Z,100399.75
2022-11-08T03:43:32.037Z,100399.34
2022-11-08T03:45:59.044Z,100404.16
2022-11-08T03:48:25.974Z,100406.78
2022-11-08T03:50:53.010Z,100404.97
2022-11-08T03:53:19.958Z,100397.53
2022-11-08T03:55:46.909Z,100406.00
2022-11-08T03:58:13.962Z,100405.88
2022-11-08T04:00:41.118Z,100406.50
2022-11-08T04:03:09.082Z,100407.19
2022-11-08T04:05:36.012Z,100387.41
2022-11-08T04:08:05.927Z,100399.72
2022-11-08T04:10:33.000Z,100393.25
2022-11-08T04:13:19.759Z,100387.25
2022-11-08T04:15:53.188Z,100388.25
2022-11-08T04:18:38.670Z,100385.44
2022-11-08T04:21:21.993Z,100395.75
2022-11-08T04:23:52.998Z,100392.03
2022-11-08T04:26:21.681Z,100390.41
2022-11-08T04:28:48.671Z,100388.44
2022-11-08T04:31:18.744Z,100389.50
2022-11-08T04:33:46.457Z,100391.19
2022-11-08T04:36:16.792Z,100383.03
2022-11-08T04:38:47.360Z,100390.41
2022-11-08T04:41:16.197Z,100393.69
2022-11-08T04:43:43.376Z,100388.94
2022-11-08T04:46:14.081Z,100378.78
2022-11-08T04:48:42.239Z,100372.81
2022-11-08T04:51:17.801Z,100389.31
2022-11-08T04:53:45.421Z,100384.22
2022-11-08T04:56:19.704Z,100388.09
2022-11-08T04:58:53.163Z,100383.81
2022-11-08T05:01:24.298Z,100386.13
2022-11-08T05:03:53.468Z,100383.28
2022-11-08T05:06:30.242Z,100391.88
2022-11-08T05:08:58.815Z,100379.63
2022-11-08T05:11:28.546Z,100384.72
2022-11-08T05:13:56.335Z,100384.41
2022-11-08T05:16:32.214Z,100378.03
2022-11-08T05:18:59.576Z,100379.97
2022-11-08T05:21:46.140Z,100380.81
2022-11-08T05:24:17.721Z,100382.41
2022-11-08T05:26:48.188Z,100390.25
2022-11-08T05:29:16.696Z,100401.69
2022-11-08T05:31:43.916Z,100397.19
2022-11-08T05:34:10.862Z,100402.06
2022-11-08T05:36:37.866Z,100395.22
2022-11-08T05:39:04.908Z,100401.53
2022-11-08T05:41:31.906Z,100405.91
2022-11-08T05:43:59.095Z,100412.66
2022-11-08T05:46:26.033Z,100404.56
2022-11-08T05:48:53.190Z,100404.41
2022-11-08T05:51:21.153Z,100411.72
2022-11-08T05:53:48.872Z,100403.06
2022-11-08T05:56:16.407Z,100407.09
2022-11-08T05:58:43.504Z,100409.72
2022-11-08T06:01:15.604Z,100415.91
2022-11-08T06:03:42.929Z,100412.59
2022-11-08T06:06:17.056Z,100410.34
2022-11-08T06:08:49.031Z,100423.16
2022-11-08T06:11:21.789Z,100410.13
2022-11-08T06:13:49.533Z,100410.09
2022-11-08T06:16:18.876Z,100413.22
2022-11-08T06:18:47.016Z,100422.22
2022-11-08T06:21:18.235Z,100422.34
2022-11-08T06:23:45.564Z,100423.94
2022-11-08T06:26:12.826Z,100433.00
2022-11-08T06:28:39.780Z,100428.69
2022-11-08T06:31:06.693Z,100426.31
2022-11-08T06:33:34.256Z,100424.44
2022-11-08T06:36:02.177Z,100423.19
2022-11-08T06:38:29.190Z,100416.50
2022-11-08T06:41:00.371Z,100430.19
2022-11-08T06:43:27.948Z,100428.88
2022-11-08T06:45:55.217Z,100430.06
2022-11-08T06:48:22.189Z,100430.88
2022-11-08T06:50:49.097Z,100423.84
2022-11-08T06:53:16.624Z,100423.19
2022-11-08T06:55:43.757Z,100432.06
2022-11-08T06:58:11.276Z,100432.06
2022-11-08T07:00:38.658Z,100441.84
2022-11-08T07:03:05.677Z,100436.66
2022-11-08T07:05:34.840Z,100438.91
2022-11-08T07:08:04.394Z,100449.84
2022-11-08T07:10:34.027Z,100455.88
2022-11-08T07:13:06.458Z,100448.09
2022-11-08T07:15:35.549Z,100448.75
2022-11-08T07:18:12.797Z,100447.47
2022-11-08T07:20:40.897Z,100456.88
2022-11-08T07:23:09.190Z,100453.50
2022-11-08T07:25:36.809Z,100460.41
2022-11-08T07:28:07.364Z,100451.75
2022-11-08T07:30:35.764Z,100454.19
2022-11-08T07:33:03.693Z,100462.44
2022-11-08T07:35:30.670Z,100459.38
2022-11-08T07:37:58.294Z,100464.69
2022-11-08T07:40:25.502Z,100456.22
2022-11-08T07:45:40.822Z,100471.72
2022-11-08T07:48:12.573Z,100464.75
2022-11-08T07:50:42.174Z,100468.19
2022-11-08T07:53:10.224Z,100462.50
2022-11-08T07:55:39.184Z,100453.03
2022-11-08T07:58:06.941Z,100461.59
2022-11-08T08:00:36.952Z,100457.94
2022-11-08T08:03:07.151Z,100459.84
2022-11-08T08:05:37.608Z,100450.38
2022-11-08T08:08:05.410Z,100453.97
2022-11-08T08:10:34.513Z,100452.38
2022-11-08T08:13:01.934Z,100447.94
2022-11-08T08:15:28.988Z,100441.78
2022-11-08T08:17:56.073Z,100438.13
2022-11-08T08:20:23.053Z,100435.44
2022-11-08T08:22:52.531Z,100456.97
2022-11-08T08:25:19.631Z,100444.34
2022-11-08T08:27:51.486Z,100446.97
2022-11-08T08:30:19.547Z,100444.94
2022-11-08T08:32:53.466Z,100449.31
2022-11-08T08:35:24.837Z,100437.69
2022-11-08T08:37:51.760Z,100445.28
2022-11-08T08:40:18.807Z,100438.03
2022-11-08T08:42:45.803Z,100437.53
2022-11-08T08:45:15.080Z,100438.13
2022-11-08T08:47:42.275Z,100436.13
2022-11-08T08:50:09.734Z,100443.81
2022-11-08T08:52:36.706Z,100438.00
2022-11-08T08:55:03.801Z,100446.72
2022-11-08T08:57:30.757Z,100448.16
2022-11-08T09:02:44.937Z,100448.97
2022-11-08T09:05:13.498Z,100447.31
2022-11-08T09:07:41.492Z,100449.19
2022-11-08T09:10:10.436Z,100435.91
2022-11-08T09:12:38.058Z,100448.22
2022-11-08T09:15:06.881Z,100444.94
2022-11-08T09:17:33.850Z,100448.03
2022-11-08T09:20:00.987Z,100451.09
2022-11-08T09:22:28.084Z,100453.06
2022-11-08T09:24:55.042Z,100460.31
2022-11-08T09:27:21.991Z,100442.47
2022-11-08T09:29:48.942Z,100452.81
2022-11-08T09:32:17.241Z,100452.28
2022-11-08T09:34:48.672Z,100448.31
2022-11-08T09:37:16.769Z,100453.63
2022-11-08T09:39:43.862Z,100454.13
2022-11-08T09:42:53.799Z,100448.03
2022-11-08T09:45:46.543Z,100451.88
2022-11-08T09:48:29.896Z,100451.47
2022-11-08T09:50:59.123Z,100450.22
2022-11-08T09:53:52.711Z,100446.25
2022-11-08T09:56:24.069Z,100457.59
2022-11-08T09:59:01.934Z,100452.06
2022-11-08T10:01:35.480Z,100447.13
2022-11-08T10:04:26.433Z,100446.53
2022-11-08T10:07:32.224Z,100445.75
2022-11-08T10:10:11.592Z,100437.16
2022-11-08T10:13:22.705Z,100435.63
2022-11-08T10:16:22.063Z,100438.31
2022-11-08T10:19:05.425Z,100418.66
2022-11-08T10:21:51.583Z,100433.84
2022-11-08T10:24:47.843Z,100437.06
2022-11-08T10:27:32.710Z,100435.13
2022-11-08T10:30:13.521Z,100441.00
2022-11-08T10:32:41.033Z,100437.97
2022-11-08T10:35:21.898Z,100431.41
2022-11-08T10:37:52.182Z,100432.31
2022-11-08T10:40:44.238Z,100424.50
2022-11-08T10:43:23.769Z,100425.75
2022-11-08T10:45:50.900Z,100425.63
2022-11-08T10:48:18.155Z,100429.09
2022-11-08T10:50:50.567Z,100423.03
2022-11-08T10:53:29.841Z,100426.19
2022-11-08T10:56:03.545Z,100404.00
2022-11-08T10:58:41.464Z,100413.66
2022-11-08T11:01:21.895Z,100415.25
2022-11-08T11:03:51.796Z,100408.16
2022-11-08T11:06:32.954Z,100410.03
2022-11-08T11:09:22.141Z,100402.16
2022-11-08T11:12:07.691Z,100399.84
2022-11-08T11:14:34.646Z,100393.88
2022-11-08T11:17:07.596Z,100385.22
2022-11-08T11:19:35.335Z,100386.56
2022-11-08T11:22:08.029Z,100377.28
2022-11-08T11:24:50.311Z,100383.03
2022-11-08T11:27:32.395Z,100375.56
2022-11-08T11:30:28.226Z,100382.81
2022-11-08T11:33:24.942Z,100379.56
2022-11-08T11:36:13.816Z,100381.38
2022-11-08T11:39:13.742Z,100377.81
2022-11-08T11:42:39.092Z,100379.41
2022-11-08T11:45:32.953Z,100377.34
2022-11-08T11:48:10.583Z,100386.09
2022-11-08T11:50:46.070Z,100382.09
2022-11-08T11:53:33.066Z,100378.34
2022-11-08T11:56:28.478Z,100390.66
2022-11-08T11:59:13.599Z,100382.19
2022-11-08T12:01:58.555Z,100381.25
2022-11-08T12:05:08.357Z,100374.91
2022-11-08T12:07:44.905Z,100376.19
2022-11-08T12:10:45.659Z,100378.88
2022-11-08T12:13:27.400Z,100387.06
2022-11-08T12:16:15.033Z,100378.13
2022-11-08T12:19:13.446Z,100373.75
2022-11-08T12:22:25.772Z,100372.00
2022-11-08T12:25:18.618Z,100374.84
2022-11-08T12:28:17.765Z,100378.41
2022-11-08T12:31:02.677Z,100359.72
2022-11-08T12:33:58.204Z,100365.13
2022-11-08T12:37:03.713Z,100360.59
2022-11-08T12:40:04.109Z,100366.84
2022-11-08T12:43:13.267Z,100364.16
2022-11-08T12:45:56.305Z,100365.06
2022-11-08T12:49:00.500Z,100358.78
2022-11-08T12:52:08.621Z,100363.22
2022-11-08T12:54:46.152Z,100350.81
2022-11-08T12:57:17.713Z,100355.06
2022-11-08T13:00:17.338Z,100355.13
2022-11-08T13:03:08.055Z,100357.78
2022-11-08T13:06:22.965Z,100350.56
2022-11-08T13:09:18.876Z,100353.97
2022-11-08T13:12:12.858Z,100355.81
2022-11-08T13:14:41.512Z,100347.69
2022-11-08T13:17:27.345Z,100347.44
2022-11-08T13:20:04.831Z,100343.75
2022-11-08T13:22:32.411Z,100345.41
2022-11-08T13:25:01.555Z,100341.09
2022-11-08T13:27:37.275Z,100340.28
2022-11-08T13:30:16.431Z,100337.56
2022-11-08T13:32:43.308Z,100337.47
2022-11-08T13:35:58.161Z,100329.25
2022-11-08T13:38:47.336Z,100337.13
2022-11-08T13:41:24.311Z,100329.97
2022-11-08T13:43:55.146Z,100327.31
2022-11-08T13:46:28.048Z,100339.78
2022-11-08T13:49:06.298Z,100338.88
2022-11-08T13:51:38.674Z,100324.50
2022-11-08T13:54:23.646Z,100338.81
2022-11-08T13:57:01.144Z,100339.50
2022-11-08T13:59:31.151Z,100343.84
2022-11-08T14:01:58.357Z,100339.50
2022-11-08T14:04:33.733Z,100339.44
2022-11-08T14:07:22.080Z,100339.31
2022-11-08T14:10:06.207Z,100339.50
2022-11-08T14:12:52.287Z,100337.56
2022-11-08T14:15:46.584Z,100329.41
2022-11-08T14:18:26.369Z,100332.00
2022-11-08T14:20:57.751Z,100331.03
2022-11-08T14:23:33.233Z,100331.09
2022-11-08T14:26:10.919Z,100328.31
2022-11-08T14:28:44.338Z,100327.22
2022-11-08T14:31:34.497Z,100343.19
2022-11-08T14:34:02.378Z,100342.88
2022-11-08T14:36:31.751Z,100342.09
2022-11-08T14:39:16.212Z,100341.91
2022-11-08T14:41:51.789Z,100346.44
2022-11-08T14:44:19.628Z,100348.88
2022-11-08T14:46:48.040Z,100355.94
2022-11-08T14:49:15.690Z,100351.38
2022-11-08T14:51:43.616Z,100352.25
2022-11-08T14:54:29.872Z,100353.03
2022-11-08T14:56:56.765Z,100349.59
2022-11-08T14:59:24.821Z,100355.56
2022-11-08T15:01:52.207Z,100349.28
2022-11-08T15:04:24.000Z,100351.84
2022-11-08T15:06:56.669Z,100346.56
2022-11-08T15:09:33.357Z,100341.03
2022-11-08T15:12:07.265Z,100342.78
2022-11-08T15:14:36.849Z,100348.72
2022-11-08T15:17:04.202Z,100352.28
2022-11-08T15:19:44.955Z,100353.16
2022-11-08T15:22:30.560Z,100351.88
2022-11-08T15:25:35.485Z,100348.97
2022-11-08T15:28:21.558Z,100339.00
2022-11-08T15:31:00.002Z,100338.34
2022-11-08T15:33:45.362Z,100342.19
2022-11-08T15:36:23.370Z,100345.75
2022-11-08T15:38:50.531Z,100342.94
2022-11-08T15:41:39.112Z,100339.69
2022-11-08T15:44:24.790Z,100338.75
2022-11-08T15:46:53.692Z,100331.03
2022-11-08T15:49:26.660Z,100330.00
2022-11-08T15:51:56.360Z,100328.03
2022-11-08T15:54:26.438Z,100330.69
2022-11-08T15:56:55.551Z,100331.47
2022-11-08T15:59:29.986Z,100328.69
2022-11-08T16:02:00.137Z,100333.16
2022-11-08T16:04:29.196Z,100328.44
2022-11-08T16:06:57.292Z,100327.44
2022-11-08T16:09:24.306Z,100322.84
2022-11-08T16:11:51.519Z,100330.28
2022-11-08T16:14:23.421Z,100330.03
2022-11-08T16:16:50.697Z,100336.03
2022-11-08T16:19:24.919Z,100338.75
2022-11-08T16:21:52.983Z,100337.81
2022-11-08T16:24:19.970Z,100344.75
2022-11-08T16:26:48.299Z,100341.78
2022-11-08T16:29:22.841Z,100334.91
2022-11-08T16:31:51.413Z,100336.66
2022-11-08T16:34:19.243Z,100346.41
2022-11-08T16:36:48.762Z,100347.84
2022-11-08T16:39:23.297Z,100350.69
2022-11-08T16:41:50.253Z,100348.75
2022-11-08T16:44:18.408Z,100347.75
2022-11-08T16:46:45.721Z,100343.03
2022-11-08T16:49:21.835Z,100346.59
2022-11-08T16:51:49.663Z,100346.41
2022-11-08T16:54:24.952Z,100348.25
2022-11-08T16:57:03.392Z,100351.56
2022-11-08T16:59:39.182Z,100347.13
2022-11-08T17:02:33.118Z,100340.19
2022-11-08T17:05:00.354Z,100342.81
2022-11-08T17:07:28.765Z,100337.53
2022-11-08T17:09:55.752Z,100343.63
2022-11-08T17:12:22.763Z,100343.41
2022-11-08T17:14:49.680Z,100337.19
2022-11-08T17:17:16.594Z,100333.63
2022-11-08T17:19:43.601Z,100338.72
2022-11-08T17:22:10.543Z,100336.78
2022-11-08T17:24:37.492Z,100334.97
2022-11-08T17:27:04.454Z,100334.13
2022-11-08T17:29:31.599Z,100334.75
2022-11-08T17:31:58.538Z,100334.63
2022-11-08T17:34:25.492Z,100335.75
2022-11-08T17:36:52.998Z,100342.72
2022-11-08T17:39:19.984Z,100339.41
2022-11-08T17:41:46.998Z,100341.16
2022-11-08T17:44:14.696Z,100337.28
2022-11-08T17:46:41.653Z,100346.88
2022-11-08T17:49:09.283Z,100343.22
2022-11-08T17:51:36.722Z,100338.84
2022-11-08T17:54:03.918Z,100342.38
2022-11-08T17:56:31.242Z,100342.25
2022-11-08T17:58:58.216Z,100332.19
2022-11-08T18:01:25.494Z,100338.34
2022-11-08T18:03:52.553Z,100342.84
2022-11-08T18:06:19.512Z,100345.88
2022-11-08T18:08:46.517Z,100347.72
2022-11-08T18:11:13.533Z,100348.22
2022-11-08T18:13:40.612Z,100345.06
2022-11-08T18:16:14.570Z,100346.63
2022-11-08T18:18:42.607Z,100348.41
2022-11-08T18:21:10.354Z,100350.06
2022-11-08T18:23:41.325Z,100347.44
2022-11-08T18:26:08.869Z,100353.56
2022-11-08T18:28:38.148Z,100349.91
2022-11-08T18:31:08.251Z,100339.81
2022-11-08T18:33:36.255Z,100342.72
2022-11-08T18:36:15.859Z,100341.47
2022-11-08T18:38:45.795Z,100333.44
2022-11-08T18:41:17.967Z,100343.25
2022-11-08T18:43:45.404Z,100334.13
2022-11-08T18:46:16.021Z,100333.31
2022-11-08T18:48:43.841Z,100338.31
2022-11-08T18:51:14.169Z,100333.25
2022-11-08T18:53:41.574Z,100339.13
2022-11-08T18:56:09.821Z,100331.91
2022-11-08T18:58:36.813Z,100340.63
2022-11-08T19:01:04.579Z,100338.09
2022-11-08T19:03:33.290Z,100345.75
2022-11-08T19:06:00.232Z,100344.81
2022-11-08T19:08:30.289Z,100339.00
2022-11-08T19:11:16.850Z,100346.53
2022-11-08T19:13:43.768Z,100339.28
2022-11-08T19:16:16.854Z,100339.97
2022-11-08T19:18:45.136Z,100357.63
2022-11-08T19:21:24.598Z,100359.31
2022-11-08T19:23:56.125Z,100361.88
2022-11-08T19:26:25.778Z,100360.91
2022-11-08T19:28:56.882Z,100371.25
2022-11-08T19:31:25.971Z,100349.97
2022-11-08T19:33:54.307Z,100366.09
2022-11-08T19:36:27.999Z,100361.38
2022-11-08T19:38:56.586Z,100357.81
2022-11-08T19:41:27.537Z,100357.66
2022-11-08T19:43:57.965Z,100363.97
2022-11-08T19:46:29.300Z,100364.81
2022-11-08T19:48:58.610Z,100370.63
2022-11-08T19:51:29.606Z,100359.72
2022-11-08T19:54:06.659Z,100364.44
2022-11-08T19:57:04.853Z,100363.50
2022-11-08T19:59:23.752Z,100368.66
2022-11-08T20:01:50.808Z,100358.72
2022-11-08T20:04:18.672Z,100364.75
2022-11-08T20:06:48.935Z,100363.72
2022-11-08T20:09:16.035Z,100366.16
2022-11-08T20:11:43.216Z,100369.53
2022-11-08T20:14:13.299Z,100374.09
2022-11-08T20:16:43.006Z,100369.84
2022-11-08T20:19:14.962Z,100370.34
2022-11-08T20:21:44.024Z,100370.44
2022-11-08T20:24:11.930Z,100365.09
2022-11-08T20:26:41.427Z,100365.94
2022-11-08T20:29:08.667Z,100371.97
2022-11-08T20:31:36.058Z,100373.78
2022-11-08T20:34:06.026Z,100368.22
2022-11-08T20:36:35.250Z,100358.59
2022-11-08T20:39:07.328Z,100358.16
2022-11-08T20:41:37.523Z,100360.78
2022-11-08T20:44:06.843Z,100352.84
2022-11-08T20:46:35.174Z,100351.06
2022-11-08T20:49:03.573Z,100352.09
2022-11-08T20:51:31.804Z,100351.25
2022-11-08T20:54:00.528Z,100355.75
2022-11-08T20:56:28.154Z,100351.00
2022-11-08T20:58:55.279Z,100346.59
2022-11-08T21:01:25.797Z,100350.91
2022-11-08T21:03:52.891Z,100349.41
2022-11-08T21:06:24.128Z,100344.59
2022-11-08T21:09:03.263Z,100349.84
2022-11-08T21:11:38.135Z,100346.13
2022-11-08T21:14:05.545Z,100348.41
2022-11-08T21:16:52.819Z,100350.59
2022-11-08T21:19:20.712Z,100350.53
2022-11-08T21:21:47.830Z,100346.28
2022-11-08T21:24:14.819Z,100342.31
2022-11-08T21:26:41.755Z,100346.03
2022-11-08T21:29:08.707Z,100345.06
2022-11-08T21:31:35.752Z,100339.50
2022-11-08T21:34:02.809Z,100347.41
2022-11-08T21:36:29.858Z,100343.22
2022-11-08T21:38:56.971Z,100342.47
2022-11-08T21:41:24.014Z,100342.72
2022-11-08T21:43:51.090Z,100338.78
2022-11-08T21:46:24.045Z,100339.97
2022-11-08T21:49:00.811Z,100329.72
2022-11-08T21:51:29.530Z,100332.47
2022-11-08T21:53:58.958Z,100329.66
2022-11-08T21:56:30.126Z,100343.69
2022-11-08T21:58:57.560Z,100348.78
2022-11-08T22:01:29.888Z,100340.44
2022-11-08T22:03:59.325Z,100343.22
2022-11-08T22:06:27.261Z,100343.38
2022-11-08T22:08:54.580Z,100351.13
2022-11-08T22:11:21.610Z,100346.59
2022-11-08T22:13:48.644Z,100349.94
2022-11-08T22:16:15.667Z,100344.00
2022-11-08T22:21:39.318Z,100341.69
2022-11-08T22:24:18.280Z,100336.41
2022-11-08T22:26:45.911Z,100344.00
2022-11-08T22:29:13.681Z,100334.75
2022-11-08T22:31:40.758Z,100349.53
2022-11-08T22:34:09.558Z,100343.13
2022-11-08T22:36:44.439Z,100344.78
2022-11-08T22:39:17.561Z,100359.34
2022-11-08T22:41:45.906Z,100345.81
2022-11-08T22:44:14.151Z,100352.81
2022-11-08T22:46:42.938Z,100344.84
2022-11-08T22:49:10.943Z,100349.09
2022-11-08T22:51:39.368Z,100348.22
2022-11-08T22:54:06.622Z,100346.41
2022-11-08T22:56:33.991Z,100349.78
2022-11-08T22:59:01.153Z,100347.44
2022-11-08T23:01:28.163Z,100347.81
2022-11-08T23:03:55.190Z,100345.41
2022-11-08T23:06:22.230Z,100346.78
2022-11-08T23:08:49.261Z,100349.13
2022-11-08T23:11:35.181Z,100341.34
2022-11-08T23:14:21.018Z,100336.66
2022-11-08T23:16:48.101Z,100334.78
2022-11-08T23:19:39.203Z,100339.81
2022-11-08T23:22:29.689Z,100328.97
2022-11-08T23:24:58.212Z,100335.34
2022-11-08T23:27:44.596Z,100324.72
2022-11-08T23:30:34.952Z,100327.81
2022-11-08T23:33:03.350Z,100344.34
2022-11-08T23:35:30.335Z,100334.19
2022-11-08T23:37:57.298Z,100324.53
2022-11-08T23:40:42.940Z,100331.38
2022-11-08T23:43:35.632Z,100328.91
2022-11-08T23:46:12.751Z,100330.97
2022-11-08T23:48:40.817Z,100325.56
2022-11-08T23:51:08.407Z,100322.94
2022-11-08T23:53:39.990Z,100320.28
2022-11-08T23:56:07.464Z,100317.78
2022-11-08T23:58:34.452Z,100316.28
